sensor_id;sensor_type;location;lat;lon;timestamp;P1;durP1;ratioP1;P2;durP2;ratioP2
24409;SDS011;12543;53.364;-1.504;2024-01-10T00:02:08;3.45;;;1.70;;
24409;SDS011;12543;53.364;-1.504;2024-01-10T00:04:37;2.65;;;1.60;;
24409;SDS011;12543;53.364;-1.504;2024-01-10T00:07:04;2.83;;;1.60;;
24409;SDS011;12543;53.364;-1.504;2024-01-10T00:09:32;2.83;;;1.27;;
24409;SDS011;12543;53.364;-1.504;2024-01-10T00:11:59;3.78;;;1.40;;
24409;SDS011;12543;53.364;-1.504;2024-01-10T00:14:27;2.35;;;1.50;;
24409;SDS011;12543;53.364;-1.504;2024-01-10T00:16:55;1.65;;;1.25;;
24409;SDS011;12543;53.364;-1.504;2024-01-10T00:19:22;3.67;;;1.23;;
24409;SDS011;12543;53.364;-1.504;2024-01-10T00:21:50;2.83;;;1.60;;
24409;SDS011;12543;53.364;-1.504;2024-01-10T00:24:17;4.70;;;1.48;;
24409;SDS011;12543;53.364;-1.504;2024-01-10T00:26:45;3.10;;;1.23;;
24409;SDS011;12543;53.364;-1.504;2024-01-10T00:29:12;2.03;;;1.15;;
24409;SDS011;12543;53.364;-1.504;2024-01-10T00:31:40;2.90;;;1.27;;
24409;SDS011;12543;53.364;-1.504;2024-01-10T00:34:08;1.58;;;1.30;;
24409;SDS011;12543;53.364;-1.504;2024-01-10T00:36:36;4.20;;;1.27;;
24409;SDS011;12543;53.364;-1.504;2024-01-10T00:39:03;2.83;;;1.10;;
24409;SDS011;12543;53.364;-1.504;2024-01-10T00:41:30;2.97;;;1.40;;
24409;SDS011;12543;53.364;-1.504;2024-01-10T00:43:58;4.93;;;1.38;;
24409;SDS011;12543;53.364;-1.504;2024-01-10T00:46:26;3.90;;;1.23;;
24409;SDS011;12543;53.364;-1.504;2024-01-10T00:48:53;1.50;;;1.08;;
24409;SDS011;12543;53.364;-1.504;2024-01-10T00:51:21;1.27;;;1.00;;
24409;SDS011;12543;53.364;-1.504;2024-01-10T00:53:48;1.77;;;1.05;;
24409;SDS011;12543;53.364;-1.504;2024-01-10T00:56:15;3.90;;;1.40;;
24409;SDS011;12543;53.364;-1.504;2024-01-10T00:58:43;1.60;;;1.20;;
24409;SDS011;12543;53.364;-1.504;2024-01-10T01:01:11;3.28;;;1.10;;
24409;SDS011;12543;53.364;-1.504;2024-01-10T01:03:39;1.35;;;1.05;;
24409;SDS011;12543;53.364;-1.504;2024-01-10T01:06:07;1.77;;;1.10;;
24409;SDS011;12543;53.364;-1.504;2024-01-10T01:08:34;4.95;;;1.25;;
24409;SDS011;12543;53.364;-1.504;2024-01-10T01:11:02;2.70;;;1.30;;
24409;SDS011;12543;53.364;-1.504;2024-01-10T01:13:29;2.60;;;1.27;;
24409;SDS011;12543;53.364;-1.504;2024-01-10T01:15:56;2.47;;;1.17;;
24409;SDS011;12543;53.364;-1.504;2024-01-10T01:18:24;3.75;;;1.60;;
24409;SDS011;12543;53.364;-1.504;2024-01-10T01:20:52;1.87;;;1.17;;
24409;SDS011;12543;53.364;-1.504;2024-01-10T01:23:19;2.03;;;1.20;;
24409;SDS011;12543;53.364;-1.504;2024-01-10T01:26:04;5.35;;;1.15;;
24409;SDS011;12543;53.364;-1.504;2024-01-10T01:28:31;1.38;;;1.00;;
24409;SDS011;12543;53.364;-1.504;2024-01-10T01:30:59;2.53;;;1.30;;
24409;SDS011;12543;53.364;-1.504;2024-01-10T01:33:26;2.72;;;1.20;;
24409;SDS011;12543;53.364;-1.504;2024-01-10T01:35:54;2.10;;;1.13;;
24409;SDS011;12543;53.364;-1.504;2024-01-10T01:38:21;4.45;;;1.23;;
24409;SDS011;12543;53.364;-1.504;2024-01-10T01:40:49;1.90;;;0.97;;
24409;SDS011;12543;53.364;-1.504;2024-01-10T01:43:20;2.20;;;1.25;;
24409;SDS011;12543;53.364;-1.504;2024-01-10T01:45:50;2.20;;;1.00;;
24409;SDS011;12543;53.364;-1.504;2024-01-10T01:48:18;1.95;;;1.20;;
24409;SDS011;12543;53.364;-1.504;2024-01-10T01:53:14;1.20;;;1.10;;
24409;SDS011;12543;53.364;-1.504;2024-01-10T01:55:43;1.88;;;0.95;;
24409;SDS011;12543;53.364;-1.504;2024-01-10T01:58:12;2.15;;;1.02;;
24409;SDS011;12543;53.364;-1.504;2024-01-10T02:00:40;1.83;;;1.00;;
24409;SDS011;12543;53.364;-1.504;2024-01-10T02:03:08;2.13;;;0.95;;
24409;SDS011;12543;53.364;-1.504;2024-01-10T02:05:37;2.42;;;1.33;;
24409;SDS011;12543;53.364;-1.504;2024-01-10T02:08:05;0.93;;;0.87;;
24409;SDS011;12543;53.364;-1.504;2024-01-10T02:10:33;3.08;;;1.08;;
24409;SDS011;12543;53.364;-1.504;2024-01-10T02:13:01;2.05;;;1.00;;
24409;SDS011;12543;53.364;-1.504;2024-01-10T02:15:32;2.83;;;1.10;;
24409;SDS011;12543;53.364;-1.504;2024-01-10T02:17:59;2.97;;;1.20;;
24409;SDS011;12543;53.364;-1.504;2024-01-10T02:20:27;2.58;;;0.82;;
24409;SDS011;12543;53.364;-1.504;2024-01-10T02:22:55;1.63;;;1.00;;
24409;SDS011;12543;53.364;-1.504;2024-01-10T02:25:23;2.60;;;1.00;;
24409;SDS011;12543;53.364;-1.504;2024-01-10T02:27:50;1.77;;;1.10;;
24409;SDS011;12543;53.364;-1.504;2024-01-10T02:30:18;3.65;;;1.20;;
24409;SDS011;12543;53.364;-1.504;2024-01-10T02:32:45;2.83;;;1.13;;
24409;SDS011;12543;53.364;-1.504;2024-01-10T02:35:13;2.80;;;1.00;;
24409;SDS011;12543;53.364;-1.504;2024-01-10T02:37:41;3.63;;;1.63;;
24409;SDS011;12543;53.364;-1.504;2024-01-10T02:40:08;2.10;;;0.80;;
24409;SDS011;12543;53.364;-1.504;2024-01-10T02:42:36;4.88;;;1.08;;
24409;SDS011;12543;53.364;-1.504;2024-01-10T02:45:04;1.63;;;0.90;;
24409;SDS011;12543;53.364;-1.504;2024-01-10T02:47:31;1.33;;;0.70;;
24409;SDS011;12543;53.364;-1.504;2024-01-10T02:49:59;2.87;;;0.90;;
24409;SDS011;12543;53.364;-1.504;2024-01-10T02:52:26;1.00;;;0.70;;
24409;SDS011;12543;53.364;-1.504;2024-01-10T02:54:54;2.38;;;1.25;;
24409;SDS011;12543;53.364;-1.504;2024-01-10T02:57:21;4.47;;;1.40;;
24409;SDS011;12543;53.364;-1.504;2024-01-10T02:59:49;3.22;;;1.13;;
24409;SDS011;12543;53.364;-1.504;2024-01-10T03:02:17;3.33;;;1.77;;
24409;SDS011;12543;53.364;-1.504;2024-01-10T03:04:45;3.10;;;1.00;;
24409;SDS011;12543;53.364;-1.504;2024-01-10T03:07:12;3.58;;;1.17;;
24409;SDS011;12543;53.364;-1.504;2024-01-10T03:09:41;1.33;;;1.02;;
24409;SDS011;12543;53.364;-1.504;2024-01-10T03:14:38;2.40;;;1.10;;
24409;SDS011;12543;53.364;-1.504;2024-01-10T03:17:06;1.15;;;0.93;;
24409;SDS011;12543;53.364;-1.504;2024-01-10T03:19:33;1.10;;;0.82;;
24409;SDS011;12543;53.364;-1.504;2024-01-10T03:22:03;1.67;;;1.10;;
24409;SDS011;12543;53.364;-1.504;2024-01-10T03:24:31;1.67;;;1.10;;
24409;SDS011;12543;53.364;-1.504;2024-01-10T03:26:58;1.67;;;0.88;;
24409;SDS011;12543;53.364;-1.504;2024-01-10T03:29:26;1.27;;;0.90;;
24409;SDS011;12543;53.364;-1.504;2024-01-10T03:31:53;1.65;;;0.93;;
24409;SDS011;12543;53.364;-1.504;2024-01-10T03:34:21;1.75;;;1.10;;
24409;SDS011;12543;53.364;-1.504;2024-01-10T03:36:48;3.03;;;1.10;;
24409;SDS011;12543;53.364;-1.504;2024-01-10T03:39:16;1.92;;;1.13;;
24409;SDS011;12543;53.364;-1.504;2024-01-10T03:41:43;2.78;;;1.00;;
24409;SDS011;12543;53.364;-1.504;2024-01-10T03:44:10;4.13;;;1.40;;
24409;SDS011;12543;53.364;-1.504;2024-01-10T03:49:06;2.08;;;1.08;;
24409;SDS011;12543;53.364;-1.504;2024-01-10T03:51:34;3.08;;;1.30;;
24409;SDS011;12543;53.364;-1.504;2024-01-10T03:54:01;2.67;;;1.10;;
24409;SDS011;12543;53.364;-1.504;2024-01-10T03:56:29;2.83;;;1.25;;
24409;SDS011;12543;53.364;-1.504;2024-01-10T03:59:00;2.78;;;1.38;;
24409;SDS011;12543;53.364;-1.504;2024-01-10T04:01:28;1.95;;;1.20;;
24409;SDS011;12543;53.364;-1.504;2024-01-10T04:03:56;1.38;;;1.02;;
24409;SDS011;12543;53.364;-1.504;2024-01-10T04:06:23;1.70;;;1.20;;
24409;SDS011;12543;53.364;-1.504;2024-01-10T04:08:51;1.73;;;0.88;;
24409;SDS011;12543;53.364;-1.504;2024-01-10T04:11:18;2.80;;;1.30;;
24409;SDS011;12543;53.364;-1.504;2024-01-10T04:13:47;1.75;;;1.20;;
24409;SDS011;12543;53.364;-1.504;2024-01-10T04:16:15;2.72;;;1.20;;
24409;SDS011;12543;53.364;-1.504;2024-01-10T04:18:42;1.88;;;0.98;;
24409;SDS011;12543;53.364;-1.504;2024-01-10T04:21:10;1.30;;;1.20;;
24409;SDS011;12543;53.364;-1.504;2024-01-10T04:23:38;1.40;;;1.30;;
24409;SDS011;12543;53.364;-1.504;2024-01-10T04:26:06;2.25;;;1.33;;
24409;SDS011;12543;53.364;-1.504;2024-01-10T04:28:34;1.30;;;1.20;;
24409;SDS011;12543;53.364;-1.504;2024-01-10T04:31:01;1.25;;;1.15;;
24409;SDS011;12543;53.364;-1.504;2024-01-10T04:33:29;1.55;;;1.30;;
24409;SDS011;12543;53.364;-1.504;2024-01-10T04:35:57;1.40;;;1.30;;
24409;SDS011;12543;53.364;-1.504;2024-01-10T04:38:24;2.00;;;1.23;;
24409;SDS011;12543;53.364;-1.504;2024-01-10T04:40:53;1.52;;;1.35;;
24409;SDS011;12543;53.364;-1.504;2024-01-10T04:43:20;4.07;;;1.67;;
24409;SDS011;12543;53.364;-1.504;2024-01-10T04:45:48;1.92;;;1.48;;
24409;SDS011;12543;53.364;-1.504;2024-01-10T04:48:15;2.30;;;1.77;;
24409;SDS011;12543;53.364;-1.504;2024-01-10T04:50:43;3.23;;;1.40;;
24409;SDS011;12543;53.364;-1.504;2024-01-10T04:53:10;2.15;;;1.67;;
24409;SDS011;12543;53.364;-1.504;2024-01-10T04:55:39;2.70;;;1.50;;
24409;SDS011;12543;53.364;-1.504;2024-01-10T04:58:06;2.08;;;1.80;;
24409;SDS011;12543;53.364;-1.504;2024-01-10T05:00:34;2.17;;;1.52;;
24409;SDS011;12543;53.364;-1.504;2024-01-10T05:03:05;2.15;;;1.40;;
24409;SDS011;12543;53.364;-1.504;2024-01-10T05:05:32;2.25;;;1.20;;
24409;SDS011;12543;53.364;-1.504;2024-01-10T05:08:01;2.17;;;1.63;;
24409;SDS011;12543;53.364;-1.504;2024-01-10T05:10:28;1.50;;;1.40;;
24409;SDS011;12543;53.364;-1.504;2024-01-10T05:12:56;2.33;;;1.50;;
24409;SDS011;12543;53.364;-1.504;2024-01-10T05:15:23;1.90;;;1.77;;
24409;SDS011;12543;53.364;-1.504;2024-01-10T05:17:51;1.60;;;1.50;;
24409;SDS011;12543;53.364;-1.504;2024-01-10T05:20:19;4.10;;;1.80;;
24409;SDS011;12543;53.364;-1.504;2024-01-10T05:22:47;2.75;;;2.13;;
24409;SDS011;12543;53.364;-1.504;2024-01-10T05:25:14;2.00;;;1.80;;
24409;SDS011;12543;53.364;-1.504;2024-01-10T05:27:44;2.40;;;2.17;;
24409;SDS011;12543;53.364;-1.504;2024-01-10T05:30:13;1.92;;;1.73;;
24409;SDS011;12543;53.364;-1.504;2024-01-10T05:35:08;2.17;;;1.95;;
24409;SDS011;12543;53.364;-1.504;2024-01-10T05:37:36;2.00;;;1.90;;
24409;SDS011;12543;53.364;-1.504;2024-01-10T05:40:04;1.98;;;1.75;;
24409;SDS011;12543;53.364;-1.504;2024-01-10T05:42:32;1.75;;;1.65;;
24409;SDS011;12543;53.364;-1.504;2024-01-10T05:45:00;1.80;;;1.70;;
24409;SDS011;12543;53.364;-1.504;2024-01-10T05:47:28;1.58;;;1.48;;
24409;SDS011;12543;53.364;-1.504;2024-01-10T05:49:56;2.53;;;1.80;;
24409;SDS011;12543;53.364;-1.504;2024-01-10T05:52:23;2.28;;;1.80;;
24409;SDS011;12543;53.364;-1.504;2024-01-10T05:54:51;2.10;;;1.80;;
24409;SDS011;12543;53.364;-1.504;2024-01-10T05:57:19;2.05;;;1.95;;
24409;SDS011;12543;53.364;-1.504;2024-01-10T05:59:48;2.78;;;2.58;;
24409;SDS011;12543;53.364;-1.504;2024-01-10T06:02:15;2.40;;;2.20;;
24409;SDS011;12543;53.364;-1.504;2024-01-10T06:04:43;2.25;;;2.05;;
24409;SDS011;12543;53.364;-1.504;2024-01-10T06:07:10;2.55;;;2.35;;
24409;SDS011;12543;53.364;-1.504;2024-01-10T06:09:40;2.97;;;2.40;;
24409;SDS011;12543;53.364;-1.504;2024-01-10T06:12:07;2.72;;;2.53;;
24409;SDS011;12543;53.364;-1.504;2024-01-10T06:14:35;3.03;;;2.73;;
24409;SDS011;12543;53.364;-1.504;2024-01-10T06:17:03;2.83;;;2.57;;
24409;SDS011;12543;53.364;-1.504;2024-01-10T06:19:30;5.17;;;2.90;;
24409;SDS011;12543;53.364;-1.504;2024-01-10T06:21:58;3.78;;;2.60;;
24409;SDS011;12543;53.364;-1.504;2024-01-10T06:24:26;2.80;;;2.60;;
24409;SDS011;12543;53.364;-1.504;2024-01-10T06:26:53;2.70;;;2.50;;
24409;SDS011;12543;53.364;-1.504;2024-01-10T06:29:21;3.20;;;2.53;;
24409;SDS011;12543;53.364;-1.504;2024-01-10T06:31:50;4.63;;;2.60;;
24409;SDS011;12543;53.364;-1.504;2024-01-10T06:34:17;2.60;;;2.40;;
24409;SDS011;12543;53.364;-1.504;2024-01-10T06:36:45;2.43;;;2.23;;
24409;SDS011;12543;53.364;-1.504;2024-01-10T06:39:12;2.70;;;2.50;;
24409;SDS011;12543;53.364;-1.504;2024-01-10T06:41:40;3.42;;;2.55;;
24409;SDS011;12543;53.364;-1.504;2024-01-10T06:44:08;3.30;;;2.78;;
24409;SDS011;12543;53.364;-1.504;2024-01-10T06:46:36;3.13;;;2.40;;
24409;SDS011;12543;53.364;-1.504;2024-01-10T06:49:04;3.05;;;2.28;;
24409;SDS011;12543;53.364;-1.504;2024-01-10T06:51:31;2.60;;;2.40;;
24409;SDS011;12543;53.364;-1.504;2024-01-10T06:53:59;2.75;;;2.55;;
24409;SDS011;12543;53.364;-1.504;2024-01-10T06:56:30;3.40;;;2.45;;
24409;SDS011;12543;53.364;-1.504;2024-01-10T06:58:58;2.50;;;2.28;;
24409;SDS011;12543;53.364;-1.504;2024-01-10T07:01:27;3.42;;;2.95;;
24409;SDS011;12543;53.364;-1.504;2024-01-10T07:03:54;4.30;;;3.00;;
24409;SDS011;12543;53.364;-1.504;2024-01-10T07:06:22;4.20;;;2.83;;
24409;SDS011;12543;53.364;-1.504;2024-01-10T07:08:50;4.20;;;3.42;;
24409;SDS011;12543;53.364;-1.504;2024-01-10T07:11:18;3.10;;;2.87;;
24409;SDS011;12543;53.364;-1.504;2024-01-10T07:13:46;4.88;;;3.03;;
24409;SDS011;12543;53.364;-1.504;2024-01-10T07:16:14;3.83;;;3.40;;
24409;SDS011;12543;53.364;-1.504;2024-01-10T07:18:42;4.65;;;3.83;;
24409;SDS011;12543;53.364;-1.504;2024-01-10T07:21:10;4.45;;;3.75;;
24409;SDS011;12543;53.364;-1.504;2024-01-10T07:23:38;3.60;;;3.30;;
24409;SDS011;12543;53.364;-1.504;2024-01-10T07:26:07;4.43;;;4.10;;
24409;SDS011;12543;53.364;-1.504;2024-01-10T07:28:35;4.97;;;4.30;;
24409;SDS011;12543;53.364;-1.504;2024-01-10T07:31:04;4.43;;;4.03;;
24409;SDS011;12543;53.364;-1.504;2024-01-10T07:33:32;3.95;;;3.63;;
24409;SDS011;12543;53.364;-1.504;2024-01-10T07:36:00;5.93;;;4.40;;
24409;SDS011;12543;53.364;-1.504;2024-01-10T07:40:56;4.60;;;4.20;;
24409;SDS011;12543;53.364;-1.504;2024-01-10T07:43:25;4.03;;;3.72;;
24409;SDS011;12543;53.364;-1.504;2024-01-10T07:45:53;3.80;;;3.50;;
24409;SDS011;12543;53.364;-1.504;2024-01-10T07:48:21;4.05;;;3.35;;
24409;SDS011;12543;53.364;-1.504;2024-01-10T07:50:48;3.75;;;3.42;;
24409;SDS011;12543;53.364;-1.504;2024-01-10T07:53:16;3.10;;;2.90;;
24409;SDS011;12543;53.364;-1.504;2024-01-10T07:55:43;3.13;;;2.83;;
24409;SDS011;12543;53.364;-1.504;2024-01-10T07:58:11;3.45;;;3.15;;
24409;SDS011;12543;53.364;-1.504;2024-01-10T08:00:40;3.63;;;3.33;;
24409;SDS011;12543;53.364;-1.504;2024-01-10T08:03:08;3.00;;;2.80;;
24409;SDS011;12543;53.364;-1.504;2024-01-10T08:05:36;3.05;;;2.85;;
24409;SDS011;12543;53.364;-1.504;2024-01-10T08:08:04;2.90;;;2.70;;
24409;SDS011;12543;53.364;-1.504;2024-01-10T08:10:32;3.67;;;3.30;;
24409;SDS011;12543;53.364;-1.504;2024-01-10T08:13:02;3.28;;;2.90;;
24409;SDS011;12543;53.364;-1.504;2024-01-10T08:15:29;3.13;;;2.85;;
24409;SDS011;12543;53.364;-1.504;2024-01-10T08:20:25;3.45;;;3.25;;
24409;SDS011;12543;53.364;-1.504;2024-01-10T08:22:53;3.03;;;2.80;;
24409;SDS011;12543;53.364;-1.504;2024-01-10T08:27:50;4.40;;;3.63;;
24409;SDS011;12543;53.364;-1.504;2024-01-10T08:30:20;3.83;;;3.33;;
24409;SDS011;12543;53.364;-1.504;2024-01-10T08:32:48;4.25;;;3.90;;
24409;SDS011;12543;53.364;-1.504;2024-01-10T08:35:15;3.85;;;3.55;;
24409;SDS011;12543;53.364;-1.504;2024-01-10T08:37:43;3.83;;;3.53;;
24409;SDS011;12543;53.364;-1.504;2024-01-10T08:40:11;3.95;;;3.55;;
24409;SDS011;12543;53.364;-1.504;2024-01-10T08:42:41;4.13;;;3.83;;
24409;SDS011;12543;53.364;-1.504;2024-01-10T08:45:09;3.92;;;3.60;;
24409;SDS011;12543;53.364;-1.504;2024-01-10T08:47:38;4.30;;;4.00;;
24409;SDS011;12543;53.364;-1.504;2024-01-10T08:50:06;4.60;;;4.20;;
24409;SDS011;12543;53.364;-1.504;2024-01-10T08:52:35;5.57;;;4.65;;
24409;SDS011;12543;53.364;-1.504;2024-01-10T08:55:06;5.72;;;5.18;;
24409;SDS011;12543;53.364;-1.504;2024-01-10T08:57:39;7.75;;;5.65;;
24409;SDS011;12543;53.364;-1.504;2024-01-10T09:00:07;6.22;;;5.70;;
24409;SDS011;12543;53.364;-1.504;2024-01-10T09:02:39;8.45;;;5.72;;
24409;SDS011;12543;53.364;-1.504;2024-01-10T09:05:06;7.05;;;6.35;;
24409;SDS011;12543;53.364;-1.504;2024-01-10T09:07:38;6.75;;;6.15;;
24409;SDS011;12543;53.364;-1.504;2024-01-10T09:10:06;7.97;;;6.63;;
24409;SDS011;12543;53.364;-1.504;2024-01-10T09:12:34;7.10;;;6.40;;
24409;SDS011;12543;53.364;-1.504;2024-01-10T09:15:02;7.53;;;6.70;;
24409;SDS011;12543;53.364;-1.504;2024-01-10T09:17:29;5.93;;;5.03;;
24409;SDS011;12543;53.364;-1.504;2024-01-10T09:19:57;8.23;;;7.33;;
24409;SDS011;12543;53.364;-1.504;2024-01-10T09:22:24;10.10;;;8.27;;
24409;SDS011;12543;53.364;-1.504;2024-01-10T09:24:52;12.05;;;9.52;;
24409;SDS011;12543;53.364;-1.504;2024-01-10T09:27:19;11.80;;;9.88;;
24409;SDS011;12543;53.364;-1.504;2024-01-10T09:29:49;12.13;;;9.60;;
24409;SDS011;12543;53.364;-1.504;2024-01-10T09:32:17;11.02;;;9.40;;
24409;SDS011;12543;53.364;-1.504;2024-01-10T09:34:45;10.07;;;8.98;;
24409;SDS011;12543;53.364;-1.504;2024-01-10T09:37:13;9.25;;;8.25;;
24409;SDS011;12543;53.364;-1.504;2024-01-10T09:39:41;10.73;;;8.85;;
24409;SDS011;12543;53.364;-1.504;2024-01-10T09:42:08;9.93;;;8.93;;
24409;SDS011;12543;53.364;-1.504;2024-01-10T09:44:36;12.70;;;9.25;;
24409;SDS011;12543;53.364;-1.504;2024-01-10T09:47:04;11.63;;;8.60;;
24409;SDS011;12543;53.364;-1.504;2024-01-10T09:49:31;9.18;;;7.95;;
24409;SDS011;12543;53.364;-1.504;2024-01-10T09:52:01;8.60;;;7.45;;
24409;SDS011;12543;53.364;-1.504;2024-01-10T09:54:31;6.97;;;6.28;;
24409;SDS011;12543;53.364;-1.504;2024-01-10T09:56:58;7.27;;;6.03;;
24409;SDS011;12543;53.364;-1.504;2024-01-10T09:59:26;6.10;;;5.50;;
24409;SDS011;12543;53.364;-1.504;2024-01-10T10:01:54;5.50;;;5.00;;
24409;SDS011;12543;53.364;-1.504;2024-01-10T10:04:25;5.28;;;4.78;;
24409;SDS011;12543;53.364;-1.504;2024-01-10T10:06:58;4.93;;;4.28;;
24409;SDS011;12543;53.364;-1.504;2024-01-10T10:09:28;4.50;;;4.13;;
24409;SDS011;12543;53.364;-1.504;2024-01-10T10:11:58;5.47;;;4.53;;
24409;SDS011;12543;53.364;-1.504;2024-01-10T10:14:28;4.07;;;3.77;;
24409;SDS011;12543;53.364;-1.504;2024-01-10T10:16:57;4.00;;;3.67;;
24409;SDS011;12543;53.364;-1.504;2024-01-10T10:19:42;4.65;;;3.85;;
24409;SDS011;12543;53.364;-1.504;2024-01-10T10:22:10;3.67;;;3.38;;
24409;SDS011;12543;53.364;-1.504;2024-01-10T10:24:39;3.55;;;3.15;;
24409;SDS011;12543;53.364;-1.504;2024-01-10T10:29:36;3.45;;;3.10;;
24409;SDS011;12543;53.364;-1.504;2024-01-10T10:32:04;3.40;;;3.10;;
24409;SDS011;12543;53.364;-1.504;2024-01-10T10:34:33;3.63;;;3.00;;
24409;SDS011;12543;53.364;-1.504;2024-01-10T10:37:01;2.97;;;2.78;;
24409;SDS011;12543;53.364;-1.504;2024-01-10T10:39:29;3.28;;;2.97;;
24409;SDS011;12543;53.364;-1.504;2024-01-10T10:41:57;3.95;;;2.92;;
24409;SDS011;12543;53.364;-1.504;2024-01-10T10:44:25;2.30;;;2.10;;
24409;SDS011;12543;53.364;-1.504;2024-01-10T10:46:55;3.85;;;3.35;;
24409;SDS011;12543;53.364;-1.504;2024-01-10T10:49:39;3.35;;;2.58;;
24409;SDS011;12543;53.364;-1.504;2024-01-10T10:52:09;2.67;;;2.42;;
24409;SDS011;12543;53.364;-1.504;2024-01-10T10:54:36;2.77;;;1.90;;
24409;SDS011;12543;53.364;-1.504;2024-01-10T10:57:05;2.35;;;2.15;;
24409;SDS011;12543;53.364;-1.504;2024-01-10T10:59:33;2.10;;;2.00;;
24409;SDS011;12543;53.364;-1.504;2024-01-10T11:02:01;2.30;;;1.85;;
24409;SDS011;12543;53.364;-1.504;2024-01-10T11:04:28;2.55;;;2.35;;
24409;SDS011;12543;53.364;-1.504;2024-01-10T11:06:56;3.10;;;2.70;;
24409;SDS011;12543;53.364;-1.504;2024-01-10T11:09:24;2.73;;;2.53;;
24409;SDS011;12543;53.364;-1.504;2024-01-10T11:11:59;3.93;;;2.90;;
24409;SDS011;12543;53.364;-1.504;2024-01-10T11:25:11;3.47;;;2.08;;
24409;SDS011;12543;53.364;-1.504;2024-01-10T11:27:41;2.10;;;2.00;;
24409;SDS011;12543;53.364;-1.504;2024-01-10T11:32:37;2.70;;;2.50;;
24409;SDS011;12543;53.364;-1.504;2024-01-10T11:35:05;3.47;;;3.13;;
24409;SDS011;12543;53.364;-1.504;2024-01-10T11:37:47;5.07;;;4.10;;
24409;SDS011;12543;53.364;-1.504;2024-01-10T11:40:23;5.03;;;4.60;;
24409;SDS011;12543;53.364;-1.504;2024-01-10T11:43:04;5.38;;;4.88;;
24409;SDS011;12543;53.364;-1.504;2024-01-10T11:48:00;4.22;;;3.83;;
24409;SDS011;12543;53.364;-1.504;2024-01-10T11:50:28;6.10;;;5.47;;
24409;SDS011;12543;53.364;-1.504;2024-01-10T11:52:59;6.43;;;5.80;;
24409;SDS011;12543;53.364;-1.504;2024-01-10T11:55:50;6.10;;;5.18;;
24409;SDS011;12543;53.364;-1.504;2024-01-10T11:58:23;4.90;;;4.40;;
24409;SDS011;12543;53.364;-1.504;2024-01-10T12:00:51;6.22;;;4.57;;
24409;SDS011;12543;53.364;-1.504;2024-01-10T12:03:19;4.70;;;4.17;;
24409;SDS011;12543;53.364;-1.504;2024-01-10T12:05:46;5.00;;;4.53;;
24409;SDS011;12543;53.364;-1.504;2024-01-10T12:08:14;5.35;;;4.85;;
24409;SDS011;12543;53.364;-1.504;2024-01-10T12:10:47;4.90;;;4.47;;
24409;SDS011;12543;53.364;-1.504;2024-01-10T12:13:15;6.20;;;5.60;;
24409;SDS011;12543;53.364;-1.504;2024-01-10T12:15:43;5.90;;;5.30;;
24409;SDS011;12543;53.364;-1.504;2024-01-10T12:18:11;6.90;;;6.20;;
24409;SDS011;12543;53.364;-1.504;2024-01-10T12:20:40;6.90;;;6.20;;
24409;SDS011;12543;53.364;-1.504;2024-01-10T12:23:10;7.28;;;6.57;;
24409;SDS011;12543;53.364;-1.504;2024-01-10T12:25:39;6.15;;;5.55;;
24409;SDS011;12543;53.364;-1.504;2024-01-10T12:28:06;6.50;;;5.80;;
24409;SDS011;12543;53.364;-1.504;2024-01-10T12:30:34;5.90;;;5.40;;
24409;SDS011;12543;53.364;-1.504;2024-01-10T12:33:03;5.85;;;5.35;;
24409;SDS011;12543;53.364;-1.504;2024-01-10T12:35:30;5.57;;;5.07;;
24409;SDS011;12543;53.364;-1.504;2024-01-10T12:37:58;5.90;;;5.40;;
24409;SDS011;12543;53.364;-1.504;2024-01-10T12:40:26;5.27;;;4.77;;
24409;SDS011;12543;53.364;-1.504;2024-01-10T12:43:06;5.15;;;4.53;;
24409;SDS011;12543;53.364;-1.504;2024-01-10T12:45:36;5.05;;;4.20;;
24409;SDS011;12543;53.364;-1.504;2024-01-10T12:48:03;6.00;;;5.22;;
24409;SDS011;12543;53.364;-1.504;2024-01-10T12:50:31;5.30;;;4.80;;
24409;SDS011;12543;53.364;-1.504;2024-01-10T12:52:59;4.73;;;4.07;;
24409;SDS011;12543;53.364;-1.504;2024-01-10T12:55:26;5.28;;;4.78;;
24409;SDS011;12543;53.364;-1.504;2024-01-10T12:57:54;4.80;;;4.40;;
24409;SDS011;12543;53.364;-1.504;2024-01-10T13:00:28;4.30;;;4.00;;
24409;SDS011;12543;53.364;-1.504;2024-01-10T13:02:55;4.78;;;4.07;;
24409;SDS011;12543;53.364;-1.504;2024-01-10T13:05:23;4.60;;;4.22;;
24409;SDS011;12543;53.364;-1.504;2024-01-10T13:07:50;5.13;;;4.73;;
24409;SDS011;12543;53.364;-1.504;2024-01-10T13:10:18;5.23;;;4.80;;
24409;SDS011;12543;53.364;-1.504;2024-01-10T13:12:46;3.73;;;3.43;;
24409;SDS011;12543;53.364;-1.504;2024-01-10T13:15:14;4.40;;;4.00;;
24409;SDS011;12543;53.364;-1.504;2024-01-10T13:17:41;4.63;;;4.22;;
24409;SDS011;12543;53.364;-1.504;2024-01-10T13:20:09;3.90;;;3.60;;
24409;SDS011;12543;53.364;-1.504;2024-01-10T13:22:38;3.35;;;3.05;;
24409;SDS011;12543;53.364;-1.504;2024-01-10T13:25:05;4.00;;;3.70;;
24409;SDS011;12543;53.364;-1.504;2024-01-10T13:27:33;4.13;;;3.83;;
24409;SDS011;12543;53.364;-1.504;2024-01-10T13:30:01;3.50;;;3.20;;
24409;SDS011;12543;53.364;-1.504;2024-01-10T13:32:29;4.40;;;3.75;;
24409;SDS011;12543;53.364;-1.504;2024-01-10T13:34:56;3.97;;;3.60;;
24409;SDS011;12543;53.364;-1.504;2024-01-10T13:37:24;3.40;;;3.10;;
24409;SDS011;12543;53.364;-1.504;2024-01-10T13:39:55;3.10;;;2.90;;
24409;SDS011;12543;53.364;-1.504;2024-01-10T13:42:23;3.00;;;2.80;;
24409;SDS011;12543;53.364;-1.504;2024-01-10T13:44:50;3.40;;;2.57;;
24409;SDS011;12543;53.364;-1.504;2024-01-10T13:47:18;2.88;;;2.65;;
24409;SDS011;12543;53.364;-1.504;2024-01-10T13:49:45;2.85;;;2.65;;
24409;SDS011;12543;53.364;-1.504;2024-01-10T13:52:13;3.13;;;2.92;;
24409;SDS011;12543;53.364;-1.504;2024-01-10T13:54:41;3.28;;;2.97;;
24409;SDS011;12543;53.364;-1.504;2024-01-10T13:57:09;3.00;;;2.80;;
24409;SDS011;12543;53.364;-1.504;2024-01-10T13:59:36;4.25;;;3.05;;
24409;SDS011;12543;53.364;-1.504;2024-01-10T14:02:04;3.47;;;2.95;;
24409;SDS011;12543;53.364;-1.504;2024-01-10T14:04:32;3.63;;;3.33;;
24409;SDS011;12543;53.364;-1.504;2024-01-10T14:07:00;3.45;;;3.15;;
24409;SDS011;12543;53.364;-1.504;2024-01-10T14:09:27;5.03;;;3.42;;
24409;SDS011;12543;53.364;-1.504;2024-01-10T14:11:55;3.75;;;3.45;;
24409;SDS011;12543;53.364;-1.504;2024-01-10T14:14:22;3.72;;;3.20;;
24409;SDS011;12543;53.364;-1.504;2024-01-10T14:16:52;6.03;;;4.22;;
24409;SDS011;12543;53.364;-1.504;2024-01-10T14:19:19;4.97;;;3.90;;
24409;SDS011;12543;53.364;-1.504;2024-01-10T14:21:47;4.18;;;3.78;;
24409;SDS011;12543;53.364;-1.504;2024-01-10T14:24:15;4.70;;;3.63;;
24409;SDS011;12543;53.364;-1.504;2024-01-10T14:26:42;4.17;;;3.37;;
24409;SDS011;12543;53.364;-1.504;2024-01-10T14:29:10;3.15;;;2.90;;
24409;SDS011;12543;53.364;-1.504;2024-01-10T14:34:08;2.67;;;2.47;;
24409;SDS011;12543;53.364;-1.504;2024-01-10T14:36:39;4.18;;;2.63;;
24409;SDS011;12543;53.364;-1.504;2024-01-10T14:39:07;4.30;;;2.83;;
24409;SDS011;12543;53.364;-1.504;2024-01-10T14:41:34;4.20;;;2.90;;
24409;SDS011;12543;53.364;-1.504;2024-01-10T14:44:02;2.90;;;2.70;;
24409;SDS011;12543;53.364;-1.504;2024-01-10T14:46:30;4.88;;;3.03;;
24409;SDS011;12543;53.364;-1.504;2024-01-10T14:48:58;6.22;;;3.88;;
24409;SDS011;12543;53.364;-1.504;2024-01-10T14:51:26;5.37;;;2.90;;
24409;SDS011;12543;53.364;-1.504;2024-01-10T14:53:53;3.47;;;2.60;;
24409;SDS011;12543;53.364;-1.504;2024-01-10T14:56:21;2.97;;;2.50;;
24409;SDS011;12543;53.364;-1.504;2024-01-10T14:58:49;2.92;;;2.72;;
24409;SDS011;12543;53.364;-1.504;2024-01-10T15:01:17;2.95;;;2.75;;
24409;SDS011;12543;53.364;-1.504;2024-01-10T15:03:46;3.38;;;2.80;;
24409;SDS011;12543;53.364;-1.504;2024-01-10T15:06:14;3.00;;;2.80;;
24409;SDS011;12543;53.364;-1.504;2024-01-10T15:08:42;4.88;;;2.70;;
24409;SDS011;12543;53.364;-1.504;2024-01-10T15:11:09;3.95;;;3.53;;
24409;SDS011;12543;53.364;-1.504;2024-01-10T15:13:41;4.00;;;3.55;;
24409;SDS011;12543;53.364;-1.504;2024-01-10T15:16:09;4.20;;;3.53;;
24409;SDS011;12543;53.364;-1.504;2024-01-10T15:18:37;3.85;;;3.35;;